Pagrindinis puslapis
METAR-TAF:

METAR-TAF

Oro uostai :

Mendosa, Argentina

platuma: 32-50S, ilguma: 068-47W, Aukštis: 705 m

Dabartinis oras

Ataskaita buvo paskelbta 1 valandą ir 11 minutes, ne 08:00 UTC
Vėjas 2 kt iš Pietvakarių
Temperatūra 10°C
Drėgmė 71%
Slėgis 1013 hPa
Matomumas 10 km arba daugiau
nėra debesų žemiau 1500 m ir nėra kamuolinių lietaus debesų

METAR: SAME 250800Z 23002KT CAVOK 10/05 Q1013

Laikas: 06:11 (09:11 UTC)

Prognozė

Ataskaita buvo paskelbta 4 valandos ir 11 minutes, ne 05:00 UTC
Prognozė galioja nuo 25 metu 06 UTC su 26 metu 06 UTC
Vėjas 5 kt iš Pietryčių
Matomumas 10 km arba daugiau
nėra debesų žemiau 1500 m ir nėra kamuolinių lietaus debesų
Tikimybė 30% :
Laikinai
nuo 25 metu 12 UTC su 25 metu 14 UTC
Vėjas kt iš Šiaurės
Matomumas: 5000 m
dūmai, migla

TAF: SAME 250500Z 2506/2606 14005KT CAVOK TX24/2520Z TN06/2510Z PROB30 TEMPO 2512/2514 00000KT 5000 FU HZ NSC

Orai ataskaitas ir orų prognozės (METAR, TAF).

turimą stotys yra geltonos ir raudonos taškus žemėlapyje.

Perkelti pele per norėdami pamatyti stoties vardą.

Tada spustelėkite, norėdami matyti oro stebėjimo ir prognozės.

Norėdami pakeisti žemėlapį: spustelėkite ant žalios mygtukų su juodo kryžiaus žemyn,; žalią mygtuką su brūkšneliu, jei norite nutolinti; arba žalių rodyklių gretimoms žemėlapius.


METAR-TAF: